createdAt,value
2018-08-31T00:06:03.727Z,1.03
2018-08-31T00:11:29.559Z,0.77
2018-08-31T00:16:39.526Z,1.00
2018-08-31T00:21:50.117Z,1.00
2018-08-31T00:27:11.133Z,0.90
2018-08-31T00:33:04.949Z,0.97
2018-08-31T00:42:33.705Z,1.30
2018-08-31T00:47:44.877Z,0.90
2018-08-31T00:52:54.989Z,0.97
2018-08-31T00:58:04.894Z,0.97
2018-08-31T01:03:14.872Z,1.00
2018-08-31T01:08:24.683Z,1.20
2018-08-31T01:13:34.614Z,1.20
2018-08-31T01:18:44.806Z,0.90
2018-08-31T01:23:54.629Z,1.17
2018-08-31T01:29:04.791Z,1.00
2018-08-31T01:34:14.620Z,1.03
2018-08-31T01:39:24.539Z,0.90
2018-08-31T01:44:34.557Z,1.27
2018-08-31T01:49:44.352Z,0.97
2018-08-31T01:54:54.227Z,1.03
2018-08-31T02:00:04.337Z,1.13
2018-08-31T02:05:14.196Z,1.03
2018-08-31T02:10:24.232Z,1.10
2018-08-31T02:15:34.339Z,0.87
2018-08-31T02:20:44.116Z,1.03
2018-08-31T02:25:54.074Z,1.37
2018-08-31T02:31:03.943Z,1.30
2018-08-31T02:36:13.872Z,1.30
2018-08-31T02:41:23.833Z,1.07
2018-08-31T02:46:34.633Z,1.00
2018-08-31T02:51:44.816Z,1.20
2018-08-31T02:56:54.537Z,1.07
2018-08-31T03:02:04.763Z,1.20
2018-08-31T03:07:14.487Z,1.00
2018-08-31T03:12:24.319Z,1.20
2018-08-31T03:17:34.127Z,1.10
2018-08-31T03:22:49.473Z,1.17
2018-08-31T03:27:59.204Z,1.33
2018-08-31T03:33:09.468Z,0.97
2018-08-31T03:38:19.363Z,1.20
2018-08-31T03:43:29.297Z,1.17
2018-08-31T03:48:39.387Z,1.10
2018-08-31T03:53:49.193Z,1.20
2018-08-31T03:58:59.188Z,1.30
2018-08-31T04:04:08.941Z,0.97
2018-08-31T04:09:19.000Z,1.07
2018-08-31T04:14:28.928Z,1.10
2018-08-31T04:19:39.981Z,1.13
2018-08-31T04:24:49.817Z,1.07
2018-08-31T04:30:00.124Z,1.07
2018-08-31T04:35:09.976Z,1.50
2018-08-31T04:40:20.027Z,1.10
2018-08-31T04:45:30.033Z,1.10
2018-08-31T04:50:39.974Z,1.20
2018-08-31T04:55:49.775Z,1.20
2018-08-31T05:00:59.717Z,1.13
2018-08-31T05:06:11.110Z,1.23
2018-08-31T05:11:21.756Z,1.23
2018-08-31T05:16:31.632Z,1.17
2018-08-31T05:21:41.563Z,1.37
2018-08-31T05:26:51.437Z,1.60
2018-08-31T05:32:01.297Z,1.63
2018-08-31T05:37:11.098Z,1.47
2018-08-31T05:42:15.243Z,1.60
2018-08-31T05:47:19.481Z,1.50
2018-08-31T05:52:25.149Z,1.70
2018-08-31T06:03:00.821Z,1.60
2018-08-31T06:08:06.403Z,1.60
2018-08-31T06:25:02.268Z,1.83
2018-08-31T06:30:06.929Z,1.60
2018-08-31T06:35:11.646Z,1.70
2018-08-31T06:40:17.763Z,1.70
2018-08-31T06:45:22.383Z,2.10
2018-08-31T06:50:26.813Z,1.43
2018-08-31T07:00:47.234Z,2.00
2018-08-31T07:05:51.708Z,2.37
2018-08-31T07:10:56.156Z,1.30
2018-08-31T07:16:00.634Z,1.70
2018-08-31T07:21:04.898Z,1.63
2018-08-31T07:26:11.400Z,1.63
2018-08-31T07:43:46.127Z,2.30
2018-08-31T07:48:55.036Z,2.17
2018-08-31T07:54:01.936Z,1.90
2018-08-31T07:59:10.127Z,2.30
2018-08-31T08:04:16.031Z,2.27
2018-08-31T08:09:27.835Z,1.87
2018-08-31T08:15:01.705Z,2.57
2018-08-31T08:20:22.550Z,1.97
2018-08-31T08:25:32.731Z,2.20
2018-08-31T08:36:34.092Z,2.20
2018-08-31T08:41:38.299Z,2.27
2018-08-31T08:46:43.178Z,2.23
2018-08-31T08:51:49.926Z,2.30
2018-08-31T08:57:17.025Z,1.47
2018-08-31T09:02:21.500Z,1.63
2018-08-31T09:19:00.429Z,1.30
2018-08-31T09:25:17.038Z,1.70
2018-08-31T09:30:41.935Z,1.20
2018-08-31T09:35:52.037Z,0.97
2018-08-31T09:47:07.250Z,0.70
2018-08-31T09:52:38.461Z,1.20
2018-08-31T09:57:44.276Z,1.20
2018-08-31T10:02:54.173Z,0.90
2018-08-31T10:07:58.501Z,0.90
2018-08-31T10:13:04.144Z,0.90
2018-08-31T10:18:08.955Z,0.70
2018-08-31T10:23:13.402Z,0.70
2018-08-31T10:28:26.909Z,0.80
2018-08-31T10:33:31.800Z,0.63
2018-08-31T10:38:35.985Z,0.57
2018-08-31T10:43:40.355Z,0.90
2018-08-31T10:48:44.535Z,0.80
2018-08-31T10:53:48.718Z,0.70
2018-08-31T10:58:53.111Z,0.67
2018-08-31T11:03:57.513Z,0.90
2018-08-31T11:09:01.706Z,0.90
2018-08-31T11:14:06.551Z,1.00
2018-08-31T11:19:10.733Z,1.00
2018-08-31T11:24:15.026Z,1.10
2018-08-31T11:29:19.226Z,1.30
2018-08-31T11:34:23.417Z,1.20
2018-08-31T11:39:29.133Z,1.00
2018-08-31T11:44:33.937Z,0.80
2018-08-31T11:49:38.157Z,1.07
2018-08-31T11:54:42.575Z,1.23
2018-08-31T11:59:47.367Z,1.20
2018-08-31T12:04:51.822Z,1.30
2018-08-31T12:09:56.169Z,1.23
2018-08-31T12:15:00.649Z,0.80
2018-08-31T12:20:05.438Z,0.70
2018-08-31T12:25:10.294Z,0.90
2018-08-31T12:30:15.430Z,0.90
2018-08-31T12:35:19.778Z,0.93
2018-08-31T12:40:23.890Z,0.80
2018-08-31T12:45:28.134Z,1.10
2018-08-31T12:50:32.345Z,0.93
2018-08-31T12:55:36.664Z,0.83
2018-08-31T13:00:40.901Z,0.80
2018-08-31T13:05:45.185Z,1.20
2018-08-31T13:10:49.357Z,0.80
2018-08-31T13:15:53.860Z,0.70
2018-08-31T13:20:57.998Z,0.50
2018-08-31T13:26:02.542Z,0.60
2018-08-31T13:31:06.883Z,0.60
2018-08-31T13:36:11.092Z,0.50
2018-08-31T13:41:15.427Z,0.60
2018-08-31T13:46:19.590Z,0.70
2018-08-31T13:51:23.821Z,1.00
2018-08-31T13:56:31.141Z,0.87
2018-08-31T14:01:47.452Z,0.80
2018-08-31T14:06:52.246Z,0.60
2018-08-31T14:11:56.646Z,0.70
2018-08-31T14:17:01.482Z,0.90
2018-08-31T14:22:06.272Z,0.70
2018-08-31T14:27:11.660Z,0.87
2018-08-31T14:32:16.301Z,0.67
2018-08-31T14:37:21.752Z,0.80
2018-08-31T14:42:26.013Z,0.63
2018-08-31T14:47:30.698Z,0.47
2018-08-31T14:52:35.076Z,0.70
2018-08-31T14:57:39.938Z,0.70
2018-08-31T15:02:44.219Z,0.60
2018-08-31T15:07:48.410Z,0.70
2018-08-31T15:12:52.807Z,0.60
2018-08-31T15:17:57.033Z,0.80
2018-08-31T15:23:01.582Z,0.70
2018-08-31T15:28:06.061Z,0.80
2018-08-31T15:33:10.256Z,0.70
2018-08-31T15:38:14.433Z,1.07
2018-08-31T15:43:18.694Z,0.60
2018-08-31T15:48:23.026Z,0.50
2018-08-31T15:53:27.225Z,1.03
2018-08-31T15:58:32.189Z,1.13
2018-08-31T16:03:36.552Z,0.50
2018-08-31T16:08:41.351Z,0.57
2018-08-31T16:13:45.680Z,1.37
2018-08-31T16:18:50.122Z,1.80
2018-08-31T16:23:54.389Z,1.00
2018-08-31T16:28:59.600Z,2.10
2018-08-31T16:34:03.877Z,1.50
2018-08-31T16:39:08.943Z,1.67
2018-08-31T16:44:13.048Z,1.20
2018-08-31T16:49:17.594Z,0.90
2018-08-31T16:54:21.900Z,1.03
2018-08-31T16:59:26.211Z,0.93
2018-08-31T17:04:30.545Z,1.00
2018-08-31T17:09:34.832Z,0.70
2018-08-31T17:14:39.123Z,0.80
2018-08-31T17:19:43.441Z,0.60
2018-08-31T17:24:48.778Z,0.60
2018-08-31T17:29:53.102Z,0.80
2018-08-31T17:35:02.694Z,0.67
2018-08-31T17:40:06.950Z,1.00
2018-08-31T17:45:12.687Z,1.13
2018-08-31T17:50:17.825Z,1.40
2018-08-31T17:55:22.480Z,1.17
2018-08-31T18:00:26.740Z,0.90
2018-08-31T18:05:31.130Z,0.50
2018-08-31T18:10:35.380Z,0.50
2018-08-31T18:15:40.506Z,0.50
2018-08-31T18:20:44.772Z,0.70
2018-08-31T18:25:49.138Z,0.73
2018-08-31T18:30:52.983Z,0.70
2018-08-31T18:35:57.156Z,0.73
2018-08-31T18:41:01.523Z,1.00
2018-08-31T18:46:05.964Z,1.37
2018-08-31T18:51:10.387Z,1.37
2018-08-31T18:56:16.148Z,1.23
2018-08-31T19:01:20.564Z,0.90
2018-08-31T19:06:25.190Z,0.73
2018-08-31T19:11:30.330Z,2.20
2018-08-31T19:16:34.632Z,2.23
2018-08-31T19:21:39.105Z,2.70
2018-08-31T19:26:43.707Z,1.57
2018-08-31T19:31:48.905Z,2.17
2018-08-31T19:36:59.192Z,0.90
2018-08-31T19:42:04.137Z,0.80
2018-08-31T19:47:08.485Z,0.50
2018-08-31T19:52:13.075Z,0.60
2018-08-31T19:57:17.486Z,0.40
2018-08-31T20:02:21.906Z,0.63
2018-08-31T20:07:26.979Z,0.60
2018-08-31T20:12:32.063Z,1.30
2018-08-31T20:17:36.494Z,1.23
2018-08-31T20:22:40.879Z,0.97
2018-08-31T20:27:45.987Z,1.10
2018-08-31T20:32:50.364Z,1.57
2018-08-31T20:37:54.594Z,1.30
2018-08-31T20:42:58.771Z,0.80
2018-08-31T20:48:03.231Z,0.83
2018-08-31T20:53:07.863Z,0.77
2018-08-31T20:58:12.263Z,0.87
2018-08-31T21:03:16.699Z,0.90
2018-08-31T21:08:21.210Z,0.80
2018-08-31T21:13:25.576Z,0.70
2018-08-31T21:18:29.912Z,0.70
2018-08-31T21:23:34.133Z,1.00
2018-08-31T21:28:38.396Z,0.60
2018-08-31T21:33:43.053Z,0.90
2018-08-31T21:38:47.494Z,0.70
2018-08-31T21:43:51.730Z,0.80
2018-08-31T21:48:55.949Z,0.50
2018-08-31T21:54:00.166Z,0.80
2018-08-31T21:59:04.428Z,0.80
2018-08-31T22:04:10.033Z,0.60
2018-08-31T22:09:14.367Z,0.80
2018-08-31T22:14:18.559Z,0.80
2018-08-31T22:19:22.757Z,0.70
2018-08-31T22:24:26.970Z,0.87
2018-08-31T22:29:31.321Z,0.70
2018-08-31T22:34:35.652Z,1.00
2018-08-31T22:39:39.834Z,0.80
2018-08-31T22:44:44.021Z,0.80
2018-08-31T22:49:55.188Z,0.80
2018-08-31T22:54:59.423Z,1.00
2018-08-31T23:00:03.683Z,0.70
2018-08-31T23:05:07.901Z,0.90
2018-08-31T23:10:12.503Z,0.87
2018-08-31T23:15:16.687Z,0.97
2018-08-31T23:20:21.488Z,0.73
2018-08-31T23:25:31.061Z,0.90
2018-08-31T23:30:35.294Z,0.90
2018-08-31T23:35:39.584Z,0.70
2018-08-31T23:40:43.753Z,0.90
2018-08-31T23:45:47.951Z,0.80
2018-08-31T23:50:52.185Z,0.90
2018-08-31T23:55:56.366Z,0.93
